createdAt,value
2022-08-22T00:00:22.142Z,4.10
2022-08-22T00:02:47.157Z,4.47
2022-08-22T00:02:57.968Z,4.13
2022-08-22T00:02:58.750Z,4.03
2022-08-22T00:03:03.075Z,3.78
2022-08-22T00:03:17.346Z,4.45
2022-08-22T00:05:58.825Z,4.60
2022-08-22T00:08:31.178Z,4.18
2022-08-22T00:11:02.845Z,4.10
2022-08-22T00:13:35.947Z,4.57
2022-08-22T00:16:08.711Z,4.32
2022-08-22T00:18:39.041Z,4.30
2022-08-22T00:21:11.065Z,5.00
2022-08-22T00:23:43.749Z,5.25
2022-08-22T00:26:21.665Z,4.80
2022-08-22T00:28:52.830Z,5.07
2022-08-22T00:31:25.966Z,4.50
2022-08-22T00:33:58.911Z,3.88
2022-08-22T00:36:30.764Z,4.70
2022-08-22T00:39:07.477Z,5.00
2022-08-22T00:41:47.903Z,4.50
2022-08-22T00:44:30.839Z,4.63
2022-08-22T00:47:13.729Z,4.20
2022-08-22T00:49:58.394Z,4.72
2022-08-22T00:52:39.829Z,5.03
2022-08-22T00:55:26.819Z,4.85
2022-08-22T00:58:15.536Z,4.77
2022-08-22T01:00:46.335Z,4.65
2022-08-22T01:03:37.825Z,4.85
2022-08-22T01:06:20.202Z,4.30
2022-08-22T01:08:58.576Z,4.65
2022-08-22T01:11:40.480Z,5.03
2022-08-22T01:14:34.191Z,4.85
2022-08-22T01:17:36.590Z,4.65
2022-08-22T01:20:45.609Z,4.65
2022-08-22T01:24:04.180Z,4.45
2022-08-22T01:27:00.416Z,5.20
2022-08-22T01:29:54.060Z,4.90
2022-08-22T01:33:08.569Z,3.85
2022-08-22T01:36:02.688Z,4.97
2022-08-22T01:39:04.785Z,4.65
2022-08-22T01:41:52.793Z,5.60
2022-08-22T01:44:44.621Z,4.90
2022-08-22T01:47:14.875Z,5.50
2022-08-22T01:49:46.543Z,5.40
2022-08-22T01:52:19.648Z,5.95
2022-08-22T01:54:53.862Z,5.77
2022-08-22T01:57:21.929Z,5.32
2022-08-22T01:59:51.033Z,5.60
2022-08-22T02:02:32.522Z,5.50
2022-08-22T02:05:06.258Z,5.25
2022-08-22T02:07:44.916Z,5.10
2022-08-22T02:10:18.028Z,5.50
2022-08-22T02:13:01.682Z,5.68
2022-08-22T02:15:47.345Z,5.45
2022-08-22T02:18:22.949Z,5.90
2022-08-22T02:21:03.209Z,5.90
2022-08-22T02:23:43.915Z,5.50
2022-08-22T02:26:14.586Z,5.75
2022-08-22T02:28:57.031Z,5.95
2022-08-22T02:31:36.305Z,5.97
2022-08-22T02:34:18.750Z,6.20
2022-08-22T02:36:50.097Z,5.53
2022-08-22T02:39:29.133Z,5.72
2022-08-22T02:42:01.644Z,6.05
2022-08-22T02:44:33.157Z,5.88
2022-08-22T02:47:09.212Z,5.50
2022-08-22T02:49:46.161Z,4.95
2022-08-22T02:52:20.185Z,4.50
2022-08-22T02:54:56.546Z,5.47
2022-08-22T02:57:31.696Z,5.60
2022-08-22T03:00:31.659Z,5.90
2022-08-22T03:03:05.635Z,5.25
2022-08-22T03:05:48.632Z,5.43
2022-08-22T03:08:22.321Z,5.70
2022-08-22T03:11:01.415Z,5.70
2022-08-22T03:13:40.236Z,6.20
2022-08-22T03:16:15.872Z,6.88
2022-08-22T03:18:48.157Z,6.65
2022-08-22T03:21:18.576Z,6.05
2022-08-22T03:23:52.786Z,6.30
2022-08-22T03:26:27.690Z,6.70
2022-08-22T03:29:04.119Z,7.38
2022-08-22T03:31:32.227Z,6.72
2022-08-22T03:34:21.318Z,6.95
2022-08-22T03:37:01.553Z,6.20
2022-08-22T03:39:45.030Z,6.37
2022-08-22T03:42:49.943Z,6.15
2022-08-22T03:45:40.993Z,6.05
2022-08-22T03:48:37.680Z,6.68
2022-08-22T03:51:32.849Z,6.35
2022-08-22T03:54:35.174Z,7.00
2022-08-22T03:57:39.005Z,6.45
2022-08-22T04:00:48.526Z,7.38
2022-08-22T04:03:37.836Z,7.05
2022-08-22T04:06:36.996Z,7.47
2022-08-22T04:09:40.421Z,8.17
2022-08-22T04:12:39.665Z,7.22
2022-08-22T04:15:30.538Z,7.57
2022-08-22T04:18:06.972Z,6.72
2022-08-22T04:21:07.810Z,7.13
2022-08-22T04:24:19.129Z,6.80
2022-08-22T04:26:50.655Z,7.82
2022-08-22T04:29:21.205Z,8.23
2022-08-22T04:31:53.717Z,7.38
2022-08-22T04:34:28.269Z,7.25
2022-08-22T04:36:59.505Z,7.57
2022-08-22T04:39:33.226Z,6.88
2022-08-22T04:42:29.153Z,6.65
2022-08-22T04:44:56.862Z,7.43
2022-08-22T04:47:31.468Z,7.00
2022-08-22T04:50:05.425Z,7.20
2022-08-22T04:52:44.201Z,6.82
2022-08-22T04:55:24.617Z,6.75
2022-08-22T04:58:01.267Z,6.80
2022-08-22T05:00:39.227Z,6.88
2022-08-22T05:03:11.873Z,6.40
2022-08-22T05:05:40.202Z,6.40
2022-08-22T05:08:12.441Z,6.35
2022-08-22T05:10:43.882Z,6.78
2022-08-22T05:13:17.112Z,6.32
2022-08-22T05:15:47.800Z,5.87
2022-08-22T05:18:19.257Z,5.43
2022-08-22T05:20:49.661Z,6.85
2022-08-22T05:23:18.640Z,6.63
2022-08-22T05:25:50.573Z,7.28
2022-08-22T05:28:29.006Z,6.10
2022-08-22T05:30:56.509Z,5.45
2022-08-22T05:33:27.965Z,5.88
2022-08-22T05:36:00.441Z,5.70
2022-08-22T05:38:31.516Z,5.65
2022-08-22T05:41:04.722Z,6.00
2022-08-22T05:43:35.701Z,5.10
2022-08-22T05:46:07.441Z,5.22
2022-08-22T05:48:40.275Z,4.95
2022-08-22T05:51:15.855Z,5.10
2022-08-22T05:53:47.786Z,5.20
2022-08-22T05:56:22.041Z,5.40
2022-08-22T05:58:52.745Z,5.03
2022-08-22T06:01:25.815Z,5.80
2022-08-22T06:04:04.156Z,5.13
2022-08-22T06:06:34.441Z,5.03
2022-08-22T06:09:06.057Z,4.95
2022-08-22T06:11:40.468Z,5.25
2022-08-22T06:14:24.746Z,5.30
2022-08-22T06:16:58.958Z,5.35
2022-08-22T06:19:26.024Z,5.37
2022-08-22T06:21:54.807Z,5.20
2022-08-22T06:24:26.025Z,5.00
2022-08-22T06:26:58.868Z,5.22
2022-08-22T06:29:39.494Z,5.32
2022-08-22T06:32:11.983Z,5.50
2022-08-22T06:34:44.297Z,4.90
2022-08-22T06:37:16.866Z,5.60
2022-08-22T06:39:47.026Z,5.30
2022-08-22T06:42:19.364Z,5.10
2022-08-22T06:44:49.488Z,5.10
2022-08-22T06:47:19.214Z,5.32
2022-08-22T06:49:46.425Z,4.97
2022-08-22T06:52:18.340Z,5.03
2022-08-22T06:54:49.781Z,5.63
2022-08-22T06:57:31.558Z,4.93
2022-08-22T07:00:00.164Z,5.43
2022-08-22T07:02:30.582Z,5.78
2022-08-22T07:04:57.526Z,5.30
2022-08-22T07:07:26.634Z,5.40
2022-08-22T07:09:54.024Z,5.90
2022-08-22T07:12:23.153Z,5.22
2022-08-22T07:14:53.830Z,5.32
2022-08-22T07:17:23.697Z,5.53
2022-08-22T07:19:57.649Z,5.57
2022-08-22T07:22:33.617Z,5.40
2022-08-22T07:25:07.661Z,5.30
2022-08-22T07:27:50.598Z,5.47
2022-08-22T07:30:27.533Z,5.50
2022-08-22T07:33:25.266Z,5.05
2022-08-22T07:35:53.556Z,5.43
2022-08-22T07:38:35.653Z,5.78
2022-08-22T07:41:12.762Z,5.07
2022-08-22T07:43:44.758Z,5.47
2022-08-22T07:46:22.286Z,4.82
2022-08-22T07:49:08.591Z,4.87
2022-08-22T07:51:42.907Z,4.88
2022-08-22T07:54:12.147Z,4.80
2022-08-22T07:56:44.627Z,4.60
2022-08-22T07:59:14.738Z,4.25
2022-08-22T08:01:46.572Z,4.50
2022-08-22T08:04:18.897Z,5.07
2022-08-22T08:06:47.989Z,4.47
2022-08-22T08:09:16.186Z,3.75
2022-08-22T08:11:44.169Z,4.03
2022-08-22T08:14:13.869Z,3.40
2022-08-22T08:16:44.822Z,3.92
2022-08-22T08:19:15.678Z,4.00
2022-08-22T08:21:48.584Z,3.88
2022-08-22T08:24:19.821Z,3.65
2022-08-22T08:26:53.253Z,3.67
2022-08-22T08:29:19.960Z,3.60
2022-08-22T08:31:47.118Z,2.80
2022-08-22T08:34:21.260Z,3.50
2022-08-22T08:36:52.168Z,3.50
2022-08-22T08:39:24.597Z,3.53
2022-08-22T08:42:08.868Z,2.95
2022-08-22T08:45:02.349Z,3.28
2022-08-22T08:47:41.868Z,3.30
2022-08-22T08:50:23.913Z,3.10
2022-08-22T08:53:18.133Z,3.00
2022-08-22T08:55:49.208Z,3.03
2022-08-22T08:58:31.700Z,3.10
2022-08-22T09:01:07.046Z,2.83
2022-08-22T09:04:01.179Z,3.00
2022-08-22T09:06:50.675Z,3.57
2022-08-22T09:09:41.817Z,2.83
2022-08-22T09:12:33.797Z,2.70
2022-08-22T09:15:28.925Z,2.92
2022-08-22T09:18:32.501Z,3.20
2022-08-22T09:21:41.668Z,2.60
2022-08-22T09:24:53.782Z,2.53
2022-08-22T09:27:30.981Z,2.50
2022-08-22T09:30:05.065Z,2.75
2022-08-22T09:32:43.961Z,3.00
2022-08-22T09:35:20.857Z,2.80
2022-08-22T09:38:02.750Z,3.03
2022-08-22T09:40:33.324Z,2.60
2022-08-22T09:43:06.300Z,2.85
2022-08-22T09:45:38.614Z,3.03
2022-08-22T09:48:16.134Z,3.00
2022-08-22T09:50:52.717Z,2.70
2022-08-22T09:53:42.649Z,3.13
2022-08-22T09:56:15.535Z,2.70
2022-08-22T09:58:54.109Z,2.50
2022-08-22T10:01:32.777Z,2.63
2022-08-22T10:04:39.910Z,3.05
2022-08-22T10:07:26.524Z,2.80
2022-08-22T10:10:03.197Z,2.83
2022-08-22T10:12:36.030Z,2.97
2022-08-22T10:15:17.278Z,2.73
2022-08-22T10:17:57.677Z,2.72
2022-08-22T10:20:29.782Z,2.40
2022-08-22T10:23:09.980Z,2.47
2022-08-22T10:25:41.804Z,2.38
2022-08-22T10:28:28.605Z,2.10
2022-08-22T10:31:13.972Z,2.30
2022-08-22T10:33:49.495Z,2.20
2022-08-22T10:36:26.235Z,2.55
2022-08-22T10:38:55.280Z,2.25
2022-08-22T10:41:30.246Z,2.03
2022-08-22T10:44:04.193Z,2.40
2022-08-22T10:46:38.907Z,2.50
2022-08-22T10:49:15.435Z,2.08
2022-08-22T10:51:49.150Z,2.70
2022-08-22T10:54:35.501Z,2.00
2022-08-22T10:57:14.064Z,2.47
2022-08-22T10:59:55.469Z,2.28
2022-08-22T11:02:39.272Z,2.03
2022-08-22T11:05:36.226Z,2.15
2022-08-22T11:08:27.844Z,1.97
2022-08-22T11:11:06.829Z,2.30
2022-08-22T11:13:43.310Z,1.70
2022-08-22T11:16:24.189Z,2.03
2022-08-22T11:19:22.679Z,1.80
2022-08-22T11:22:00.323Z,2.10
2022-08-22T11:25:06.717Z,1.90
2022-08-22T11:27:48.937Z,1.90
2022-08-22T11:30:20.286Z,1.65
2022-08-22T11:33:33.884Z,1.67
2022-08-22T11:36:27.873Z,1.77
2022-08-22T11:39:10.022Z,2.13
2022-08-22T11:41:53.351Z,1.75
2022-08-22T11:44:26.464Z,1.90
2022-08-22T11:46:55.243Z,1.77
2022-08-22T11:49:43.059Z,1.70
2022-08-22T11:52:20.392Z,1.80
2022-08-22T11:55:10.928Z,2.10
2022-08-22T11:57:44.335Z,1.90
2022-08-22T12:00:25.126Z,1.98
2022-08-22T12:03:24.456Z,2.03
2022-08-22T12:05:57.485Z,1.70
2022-08-22T12:09:17.851Z,1.70
2022-08-22T12:12:00.654Z,1.67
2022-08-22T12:14:38.074Z,1.73
2022-08-22T12:17:21.272Z,1.70
2022-08-22T12:20:16.066Z,2.03
2022-08-22T12:23:09.803Z,1.50
2022-08-22T12:25:56.163Z,1.60
2022-08-22T12:28:31.513Z,1.70
2022-08-22T12:31:07.460Z,1.93
2022-08-22T12:33:52.453Z,1.85
2022-08-22T12:36:50.924Z,2.05
2022-08-22T12:39:53.318Z,2.13
2022-08-22T12:42:46.258Z,1.40
2022-08-22T12:45:32.362Z,2.00
2022-08-22T12:48:09.505Z,1.77
2022-08-22T12:50:51.305Z,1.92
2022-08-22T12:53:49.429Z,1.92
2022-08-22T12:56:29.541Z,2.08
2022-08-22T12:59:20.232Z,2.67
2022-08-22T13:01:50.400Z,2.20
2022-08-22T13:04:33.027Z,1.83
2022-08-22T13:07:10.040Z,2.08
2022-08-22T13:09:39.723Z,2.00
2022-08-22T13:12:23.103Z,2.00
2022-08-22T13:14:54.622Z,2.08
2022-08-22T13:17:25.386Z,5.13
2022-08-22T13:20:01.641Z,3.33
2022-08-22T13:22:31.759Z,2.47
2022-08-22T13:25:04.920Z,2.27
2022-08-22T13:27:35.001Z,1.92
2022-08-22T13:30:06.906Z,1.92
2022-08-22T13:32:48.202Z,1.65
2022-08-22T13:35:23.837Z,1.80
2022-08-22T13:37:55.404Z,1.57
2022-08-22T13:40:26.756Z,2.00
2022-08-22T13:43:05.133Z,1.60
2022-08-22T13:45:35.823Z,1.60
2022-08-22T13:48:09.052Z,2.03
2022-08-22T13:50:56.356Z,1.87
2022-08-22T13:53:30.418Z,1.90
2022-08-22T13:56:05.534Z,1.77
2022-08-22T13:58:38.153Z,1.55
2022-08-22T14:01:34.701Z,1.83
2022-08-22T14:04:26.646Z,1.50
2022-08-22T14:07:28.008Z,1.95
2022-08-22T14:09:58.333Z,1.60
2022-08-22T14:12:28.170Z,2.10
2022-08-22T14:15:02.434Z,1.73
2022-08-22T14:17:42.479Z,1.80
2022-08-22T14:20:13.505Z,1.70
2022-08-22T14:23:04.944Z,1.50
2022-08-22T14:25:36.535Z,1.90
2022-08-22T14:28:09.538Z,2.05
2022-08-22T14:30:49.099Z,1.50
2022-08-22T14:33:21.565Z,1.90
2022-08-22T14:35:53.734Z,1.40
2022-08-22T14:38:31.162Z,1.70
2022-08-22T14:41:03.854Z,1.70
2022-08-22T14:43:51.429Z,1.93
2022-08-22T14:46:26.631Z,1.67
2022-08-22T14:49:14.766Z,1.75
2022-08-22T14:51:48.731Z,1.70
2022-08-22T14:54:21.105Z,1.55
2022-08-22T14:56:50.240Z,1.73
2022-08-22T14:59:37.366Z,1.50
2022-08-22T15:02:09.362Z,1.80
2022-08-22T15:04:41.584Z,1.50
2022-08-22T15:07:10.468Z,1.58
2022-08-22T15:09:41.664Z,1.50
2022-08-22T15:12:21.625Z,1.90
2022-08-22T15:14:52.470Z,1.73
2022-08-22T15:17:36.652Z,1.52
2022-08-22T15:20:13.417Z,1.63
2022-08-22T15:22:45.546Z,1.60
2022-08-22T15:25:16.453Z,1.85
2022-08-22T15:27:48.806Z,1.60
2022-08-22T15:30:21.029Z,1.70
2022-08-22T15:32:48.565Z,1.48
2022-08-22T15:35:30.495Z,1.87
2022-08-22T15:38:00.207Z,1.80
2022-08-22T15:40:40.513Z,1.52
2022-08-22T15:43:26.169Z,1.70
2022-08-22T15:46:17.805Z,1.35
2022-08-22T15:48:55.313Z,1.73
2022-08-22T15:51:39.154Z,1.50
2022-08-22T15:54:24.407Z,1.33
2022-08-22T15:57:14.964Z,1.48
2022-08-22T15:59:53.884Z,1.42
2022-08-22T16:02:25.853Z,1.70
2022-08-22T16:05:17.027Z,1.52
2022-08-22T16:07:48.203Z,1.63
2022-08-22T16:10:30.368Z,1.35
2022-08-22T16:13:33.509Z,1.33
2022-08-22T16:16:03.683Z,1.70
2022-08-22T16:19:07.696Z,1.67
2022-08-22T16:22:17.128Z,1.60
2022-08-22T16:25:10.364Z,1.40
2022-08-22T16:27:54.861Z,1.40
2022-08-22T16:30:33.421Z,1.87
2022-08-22T16:33:00.302Z,1.30
2022-08-22T16:36:04.380Z,1.70
2022-08-22T16:38:40.036Z,1.60
2022-08-22T16:41:25.403Z,1.35
2022-08-22T16:44:27.689Z,1.83
2022-08-22T16:47:07.899Z,1.48
2022-08-22T16:49:39.288Z,1.92
2022-08-22T16:52:54.660Z,1.88
2022-08-22T16:55:54.881Z,1.73
2022-08-22T16:59:00.846Z,1.57
2022-08-22T17:01:56.607Z,1.70
2022-08-22T17:04:33.071Z,1.77
2022-08-22T17:07:14.409Z,1.67
2022-08-22T17:09:59.167Z,1.55
2022-08-22T17:12:38.929Z,1.73
2022-08-22T17:15:25.860Z,1.75
2022-08-22T17:18:12.113Z,1.63
2022-08-22T17:20:46.168Z,1.58
2022-08-22T17:23:24.008Z,1.60
2022-08-22T17:26:19.660Z,1.70
2022-08-22T17:28:56.194Z,1.92
2022-08-22T17:31:31.608Z,1.58
2022-08-22T17:34:14.087Z,2.00
2022-08-22T17:36:51.712Z,1.45
2022-08-22T17:39:30.803Z,1.87
2022-08-22T17:42:05.207Z,1.60
2022-08-22T17:44:44.096Z,1.60
2022-08-22T17:47:16.275Z,1.58
2022-08-22T17:49:53.398Z,1.60
2022-08-22T17:52:25.086Z,2.07
2022-08-22T17:54:56.030Z,1.70
2022-08-22T17:57:29.641Z,1.83
2022-08-22T18:00:01.299Z,1.85
2022-08-22T18:02:34.208Z,1.77
2022-08-22T18:05:07.953Z,1.80
2022-08-22T18:07:55.084Z,1.65
2022-08-22T18:10:30.836Z,1.70
2022-08-22T18:13:06.967Z,1.60
2022-08-22T18:15:42.037Z,1.67
2022-08-22T18:18:20.102Z,1.37
2022-08-22T18:20:52.584Z,1.70
2022-08-22T18:23:39.751Z,1.52
2022-08-22T18:26:19.368Z,1.70
2022-08-22T18:28:52.458Z,1.45
2022-08-22T18:31:38.436Z,1.90
2022-08-22T18:34:15.952Z,1.65
2022-08-22T18:36:50.504Z,1.48
2022-08-22T18:39:26.240Z,1.70
2022-08-22T18:42:01.866Z,1.73
2022-08-22T18:44:32.698Z,1.53
2022-08-22T18:47:01.246Z,1.70
2022-08-22T18:49:46.133Z,1.45
2022-08-22T18:52:20.056Z,1.30
2022-08-22T18:55:27.147Z,1.80
2022-08-22T18:58:21.730Z,1.37
2022-08-22T19:01:15.408Z,1.60
2022-08-22T19:04:04.004Z,1.70
2022-08-22T19:07:13.484Z,1.70
2022-08-22T19:10:05.857Z,1.65
2022-08-22T19:12:48.473Z,1.70
2022-08-22T19:15:27.091Z,1.70
2022-08-22T19:18:28.724Z,1.60
2022-08-22T19:21:38.036Z,1.80
2022-08-22T19:24:08.875Z,1.70
2022-08-22T19:26:39.821Z,1.60
2022-08-22T19:29:56.880Z,1.80
2022-08-22T19:33:01.409Z,1.35
2022-08-22T19:35:36.553Z,1.70
2022-08-22T19:38:05.053Z,1.80
2022-08-22T19:40:53.294Z,1.27
2022-08-22T19:43:30.833Z,1.90
2022-08-22T19:45:59.743Z,1.77
2022-08-22T19:48:31.617Z,2.10
2022-08-22T19:51:09.218Z,1.80
2022-08-22T19:53:44.515Z,1.60
2022-08-22T19:56:30.461Z,1.63
2022-08-22T19:59:10.718Z,1.58
2022-08-22T20:02:01.867Z,2.05
2022-08-22T20:04:52.331Z,1.70
2022-08-22T20:07:32.420Z,2.23
2022-08-22T20:10:11.142Z,1.98
2022-08-22T20:12:51.510Z,1.90
2022-08-22T20:15:20.265Z,1.98
2022-08-22T20:18:11.681Z,2.15
2022-08-22T20:20:40.277Z,1.83
2022-08-22T20:23:15.423Z,1.80
2022-08-22T20:25:45.736Z,1.90
2022-08-22T20:28:36.676Z,1.80
2022-08-22T20:31:06.702Z,2.58
2022-08-22T20:33:35.953Z,2.00
2022-08-22T20:36:05.742Z,2.25
2022-08-22T20:38:36.111Z,1.70
2022-08-22T20:41:13.531Z,2.15
2022-08-22T20:43:49.666Z,1.60
2022-08-22T20:46:26.829Z,2.20
2022-08-22T20:48:55.770Z,2.50
2022-08-22T20:51:24.375Z,2.22
2022-08-22T20:53:53.626Z,2.40
2022-08-22T20:56:37.756Z,2.38
2022-08-22T20:59:17.805Z,1.90
2022-08-22T21:01:45.202Z,2.53
2022-08-22T21:04:11.878Z,2.28
2022-08-22T21:06:38.494Z,2.45
2022-08-22T21:09:13.427Z,2.40
2022-08-22T21:11:50.062Z,2.47
2022-08-22T21:14:24.299Z,2.30
2022-08-22T21:16:51.793Z,2.50
2022-08-22T21:19:23.706Z,2.45
2022-08-22T21:21:50.446Z,2.50
2022-08-22T21:24:17.098Z,2.40
2022-08-22T21:26:49.088Z,2.42
2022-08-22T21:29:23.891Z,2.55
2022-08-22T21:31:53.497Z,2.83
2022-08-22T21:34:24.790Z,2.53
2022-08-22T21:36:53.620Z,2.90
2022-08-22T21:39:24.819Z,2.70
2022-08-22T21:41:53.634Z,2.78
2022-08-22T21:44:39.391Z,2.40
2022-08-22T21:47:31.501Z,2.75
2022-08-22T21:50:01.622Z,2.57
2022-08-22T21:52:30.072Z,2.60
2022-08-22T21:55:15.638Z,2.80
2022-08-22T21:57:42.632Z,2.70
2022-08-22T22:00:57.858Z,2.58
2022-08-22T22:03:28.155Z,3.20
2022-08-22T22:05:57.710Z,2.63
2022-08-22T22:08:25.780Z,2.90
2022-08-22T22:11:00.325Z,2.90
2022-08-22T22:13:28.610Z,3.00
2022-08-22T22:15:58.112Z,3.00
2022-08-22T22:18:29.927Z,3.13
2022-08-22T22:20:57.437Z,2.50
2022-08-22T22:23:24.934Z,2.88
2022-08-22T22:25:53.515Z,3.00
2022-08-22T22:28:23.690Z,3.20
2022-08-22T22:30:51.752Z,2.80
2022-08-22T22:33:21.149Z,2.70
2022-08-22T22:35:49.457Z,3.10
2022-08-22T22:38:19.525Z,3.05
2022-08-22T22:40:50.186Z,3.23
2022-08-22T22:43:16.881Z,2.60
2022-08-22T22:45:43.609Z,3.08
2022-08-22T22:48:10.340Z,2.97
2022-08-22T22:50:38.402Z,3.05
2022-08-22T22:53:05.174Z,2.87
2022-08-22T22:55:36.192Z,3.40
2022-08-22T22:58:08.456Z,3.13
2022-08-22T23:00:37.247Z,3.08
2022-08-22T23:03:05.837Z,2.88
2022-08-22T23:05:33.965Z,3.63
2022-08-22T23:08:02.573Z,3.60
2022-08-22T23:10:31.377Z,3.72
2022-08-22T23:12:58.328Z,3.40
2022-08-22T23:29:33.608Z,3.50
2022-08-22T23:32:03.035Z,3.25
2022-08-22T23:34:32.008Z,3.37
2022-08-22T23:37:02.309Z,3.80
2022-08-22T23:39:34.567Z,3.35
2022-08-22T23:42:02.127Z,3.55
2022-08-22T23:44:30.345Z,3.88
2022-08-22T23:46:59.559Z,3.50
2022-08-22T23:49:27.160Z,3.80
2022-08-22T23:51:54.173Z,3.90
2022-08-22T23:54:21.639Z,3.75
2022-08-22T23:56:52.151Z,3.55
2022-08-22T23:59:22.241Z,3.90
